Time;durP1;ratioP1;P1;durP2;ratioP2;P2;SDS_P1;SDS_P2;PMS_P1;PMS_P2;Temp;Humidity;BMP_temperature;BMP_pressure;BME280_temperature;BME280_humidity;BME280_pressure;Samples;Min_cycle;Max_cycle;Signal;HPM_P1;HPM_P2
2021/11/14 02:14:26;;;;;;;21.97;14.60;;;13.60;52.90;;;;;;4909578;29;20489;-88
2021/11/14 04:14:41;;;;;;;37.07;21.53;;;12.20;53.90;;;;;;4949675;29;20559;-88
2021/11/14 04:37:39;;;;;;;28.90;18.43;;;12.50;54.00;;;;;;4920880;29;20470;-87
2021/11/14 05:03:57;;;;;;;;;;;;;;;;;;;;;
2021/11/14 05:30:34;;;;;;;27.40;17.60;;;13.50;52.90;;;;;;4680404;30;20459;-91
2021/11/14 05:40:19;;;;;;;19.40;13.30;;;13.00;53.50;;;;;;4756903;30;20492;-91
2021/11/14 05:49:39;;;;;;;;;;;;;;;;;;;;;
2021/11/14 05:59:16;;;;;;;25.70;17.10;;;13.00;53.40;;;;;;4761420;29;20460;-85
2021/11/14 06:02:23;;;;;;;24.63;16.60;;;12.90;53.40;;;;;;4792677;29;20474;-86
2021/11/14 06:05:24;;;;;;;29.33;19.33;;;12.60;54.30;;;;;;4761499;29;20461;-86
2021/11/14 06:11:41;;;;;;;27.40;17.80;;;12.80;53.50;;;;;;4739173;30;20429;-87
2021/11/14 06:24:21;;;;;;;30.83;18.60;;;12.90;53.80;;;;;;4806755;29;20487;-87
2021/11/14 06:27:05;;;;;;;25.83;17.77;;;12.50;54.50;;;;;;4810463;29;20505;-87
2021/11/14 06:29:39;;;;;;;35.13;20.53;;;12.60;54.60;;;;;;4810072;29;20468;-86
2021/11/14 06:32:25;;;;;;;33.10;20.53;;;12.30;54.50;;;;;;4810103;29;20449;-87
2021/11/14 06:38:15;;;;;;;33.83;21.73;;;11.90;55.80;;;;;;4813937;29;20459;-92
2021/11/14 06:41:09;;;;;;;31.97;20.57;;;11.60;57.00;;;;;;4816947;29;20486;-92
2021/11/14 06:44:09;;;;;;;;;;;;;;;;;;;;;
2021/11/14 06:47:04;;;;;;;29.50;19.87;;;11.60;57.00;;;;;;4884619;29;20535;-91
2021/11/14 06:49:38;;;;;;;32.20;19.77;;;11.00;58.40;;;;;;4915344;29;20965;-92
2021/11/14 06:52:06;;;;;;;36.03;20.80;;;10.80;60.00;;;;;;4917071;29;20464;-91
2021/11/14 06:54:49;;;;;;;37.47;22.03;;;11.00;60.10;;;;;;4918520;29;20494;-92
2021/11/14 06:57:34;;;;;;;33.70;20.93;;;11.50;58.80;;;;;;4928319;29;20949;-91
2021/11/14 07:00:22;;;;;;;36.43;21.40;;;11.40;58.50;;;;;;4975995;28;20474;-87
2021/11/14 07:02:59;;;;;;;30.53;19.40;;;11.10;58.40;;;;;;4960876;28;20460;-92
2021/11/14 07:05:46;;;;;;;37.50;21.90;;;11.40;58.80;;;;;;4956314;28;20863;-91
2021/11/14 07:08:29;;;;;;;29.00;19.47;;;11.40;59.00;;;;;;4955755;28;20456;-91
2021/11/14 07:11:17;;;;;;;36.60;22.37;;;11.50;59.10;;;;;;4955480;28;20472;-92
2021/11/14 07:13:59;;;;;;;35.63;22.17;;;11.80;57.80;;;;;;4955906;28;20483;-91
2021/11/14 07:16:32;;;;;;;42.27;24.50;;;11.60;57.90;;;;;;4956507;28;20497;-91
2021/11/14 07:24:39;;;;;;;32.33;20.90;;;12.60;55.70;;;;;;4964365;28;20523;-91
2021/11/14 07:27:06;;;;;;;44.23;21.20;;;12.30;56.50;;;;;;4962238;28;20487;-91
2021/11/14 07:29:38;;;;;;;28.83;17.80;;;12.20;56.40;;;;;;4961134;28;20542;-91
2021/11/14 07:32:07;;;;;;;19.93;14.07;;;12.30;56.60;;;;;;4959118;28;20690;-91
2021/11/14 07:34:41;;;;;;;28.30;18.70;;;12.50;57.10;;;;;;4951561;29;20489;-91
2021/11/14 07:37:16;;;;;;;30.10;16.57;;;12.70;55.10;;;;;;4943020;29;20459;-92
2021/11/14 07:40:05;;;;;;;;;;;;;;;;;;;;;
2021/11/14 07:42:44;;;;;;;32.40;20.23;;;12.80;57.50;;;;;;4950422;29;20535;-91
2021/11/14 07:45:34;;;;;;;29.97;19.00;;;13.30;54.30;;;;;;4962970;29;20539;-92
2021/11/14 07:48:18;;;;;;;32.73;21.47;;;13.40;55.00;;;;;;4966479;28;20455;-91
2021/11/14 07:51:06;;;;;;;31.43;20.07;;;13.20;53.70;;;;;;4962404;28;20468;-92
2021/11/14 07:53:51;;;;;;;29.80;19.20;;;13.10;53.90;;;;;;4961452;28;20492;-93
2021/11/14 07:56:37;;;;;;;32.37;20.40;;;13.20;54.00;;;;;;4961542;28;20421;-92
2021/11/14 07:59:05;;;;;;;33.77;20.40;;;13.00;54.90;;;;;;4961293;28;20476;-91
2021/11/14 08:01:35;;;;;;;30.87;19.40;;;12.80;54.90;;;;;;4960158;28;20428;-92
2021/11/14 08:04:02;;;;;;;33.47;21.00;;;12.80;54.80;;;;;;4961791;28;20427;-91
2021/11/14 08:06:35;;;;;;;24.07;15.77;;;12.90;55.00;;;;;;4962318;28;20524;-92
2021/11/14 08:09:05;;;;;;;48.53;29.20;;;13.30;58.10;;;;;;4961851;28;20481;-92
2021/11/14 08:11:33;;;;;;;60.30;27.83;;;14.00;56.00;;;;;;4959610;28;20484;-92
2021/11/14 08:14:28;;;;;;;36.20;19.63;;;14.00;53.20;;;;;;4962470;28;20572;-92
2021/11/14 08:16:57;;;;;;;32.20;20.40;;;13.80;54.10;;;;;;4966599;28;20464;-92
2021/11/14 08:23:13;;;;;;;34.20;21.20;;;13.40;53.60;;;;;;4956274;28;20429;-92
2021/11/14 08:25:55;;;;;;;48.27;21.40;;;13.10;56.50;;;;;;4959109;28;20483;-92
2021/11/14 08:35:17;;;;;;;;;;;;;;;;;;;;;
2021/11/14 08:37:58;;;;;;;51.23;23.37;;;11.10;60.20;;;;;;4998878;28;20476;-91
2021/11/14 08:57:17;;;;;;;47.30;24.73;;;11.80;59.60;;;;;;4780177;29;20459;-91
2021/11/14 09:00:22;;;;;;;38.50;23.40;;;12.20;58.00;;;;;;4814084;29;20483;-90
2021/11/14 09:03:40;;;;;;;39.73;23.07;;;11.60;59.90;;;;;;4774830;30;20495;-91
2021/11/14 09:06:36;;;;;;;38.00;23.60;;;11.80;60.10;;;;;;4787971;29;20469;-90
2021/11/14 10:38:38;;;;;;;31.10;19.30;;;12.40;59.70;;;;;;4934307;29;20437;-89
2021/11/14 10:41:08;;;;;;;35.37;20.80;;;12.10;59.70;;;;;;4917461;29;20490;-89
2021/11/14 11:03:12;;;;;;;40.70;22.27;;;12.60;59.30;;;;;;4876989;29;20456;-88
2021/11/14 11:06:35;;;;;;;;;;;;;;;;;;;;;
2021/11/14 11:12:57;;;;;;;39.47;22.23;;;11.80;63.00;;;;;;4779799;29;20528;-90
2021/11/14 11:15:25;;;;;;;43.43;23.87;;;12.10;62.60;;;;;;4828194;29;20515;-86
2021/11/14 11:17:54;;;;;;;46.77;23.23;;;12.10;62.20;;;;;;4824810;29;20448;-87
2021/11/14 11:20:23;;;;;;;45.07;24.77;;;12.10;62.40;;;;;;4827734;29;20534;-87
2021/11/14 11:22:56;;;;;;;44.77;24.07;;;12.10;62.80;;;;;;4838839;29;20466;-85
2021/11/14 11:28:31;;;;;;;50.57;25.67;;;12.50;62.30;;;;;;5418142;22;20517;-90
2021/11/14 11:33:55;;;;;;;51.70;24.47;;;12.20;62.50;;;;;;4995638;28;20435;-90
2021/11/14 11:36:31;;;;;;;47.33;25.13;;;12.60;61.90;;;;;;4996889;28;20477;-89
2021/11/14 11:39:24;;;;;;;50.13;25.50;;;13.00;61.30;;;;;;4997930;28;20479;-89
2021/11/14 11:41:57;;;;;;;51.10;25.87;;;13.00;60.20;;;;;;5010676;28;20465;-88
2021/11/14 11:45:01;;;;;;;53.10;26.80;;;13.30;60.20;;;;;;5012825;28;20483;-90
2021/11/14 11:47:45;;;;;;;54.80;25.10;;;13.30;60.40;;;;;;5010845;28;20509;-90
2021/11/14 11:50:26;;;;;;;;;;;;;;;;;;;;;
2021/11/14 11:52:54;;;;;;;44.30;24.07;;;13.00;60.30;;;;;;5002390;28;20538;-90
2021/11/14 12:02:54;;;;;;;50.27;24.70;;;13.10;61.10;;;;;;4933011;29;20926;-90
2021/11/14 12:18:03;;;;;;;36.50;18.90;;;13.00;60.40;;;;;;4739800;30;20566;-92
2021/11/14 12:20:33;;;;;;;36.37;17.90;;;12.50;61.90;;;;;;4739889;30;20477;-90
2021/11/14 12:23:27;;;;;;;41.33;19.73;;;12.50;61.20;;;;;;4740238;30;20801;-88
2021/11/14 12:26:06;;;;;;;39.60;19.17;;;11.90;63.20;;;;;;4740289;30;20448;-89
2021/11/14 12:28:34;;;;;;;31.53;17.53;;;11.80;63.00;;;;;;4741377;30;20505;-90
2021/11/14 12:31:10;;;;;;;27.90;14.70;;;11.50;64.20;;;;;;4742615;30;20963;-90
2021/11/14 12:33:42;;;;;;;32.53;17.97;;;11.50;64.40;;;;;;4746325;30;20513;-87
2021/11/14 12:36:20;;;;;;;34.43;17.83;;;11.90;63.40;;;;;;4746094;30;20487;-90
2021/11/14 12:38:47;;;;;;;35.43;16.77;;;12.10;62.10;;;;;;4788156;29;20497;-88
2021/11/14 12:41:16;;;;;;;36.60;17.97;;;12.00;62.10;;;;;;4905436;29;20513;-88
2021/11/14 12:43:47;;;;;;;35.13;18.20;;;11.60;63.50;;;;;;4971844;28;20536;-88
2021/11/14 12:46:16;;;;;;;37.43;18.63;;;11.50;64.40;;;;;;5011383;28;20489;-88
2021/11/14 12:48:47;;;;;;;39.10;19.23;;;11.40;64.40;;;;;;5014452;28;20497;-88
2021/11/14 12:51:16;;;;;;;33.00;17.77;;;11.50;64.50;;;;;;5013834;28;20442;-89
2021/11/14 12:53:55;;;;;;;35.30;18.50;;;11.30;65.70;;;;;;5013426;28;20578;-89
2021/11/14 12:56:28;;;;;;;44.73;20.77;;;11.50;64.50;;;;;;5008691;28;20494;-89
2021/11/14 12:58:56;;;;;;;48.37;23.07;;;11.60;64.60;;;;;;5004317;28;20515;-90
2021/11/14 13:01:25;;;;;;;35.50;18.77;;;11.50;64.50;;;;;;5007079;28;20594;-90
2021/11/14 13:03:53;;;;;;;37.47;18.33;;;11.70;64.70;;;;;;5014572;28;20483;-91
2021/11/14 13:06:23;;;;;;;35.13;17.20;;;11.70;64.40;;;;;;5011136;28;20490;-89
2021/11/14 13:08:50;;;;;;;32.37;18.93;;;11.50;64.50;;;;;;5011104;28;20483;-89
2021/11/14 13:11:23;;;;;;;38.67;18.40;;;11.90;64.20;;;;;;5011110;28;20435;-90
2021/11/14 13:13:54;;;;;;;38.87;19.87;;;12.40;62.80;;;;;;5012311;28;20425;-90
2021/11/14 13:16:25;;;;;;;34.57;18.50;;;12.60;61.40;;;;;;5010800;28;20471;-90
2021/11/14 13:18:54;;;;;;;35.73;19.00;;;12.60;61.40;;;;;;5009377;28;20482;-89
2021/11/14 13:21:23;;;;;;;37.90;19.83;;;12.70;61.20;;;;;;5010507;28;20462;-90
2021/11/14 13:23:56;;;;;;;35.30;18.53;;;12.70;61.00;;;;;;5008363;28;20502;-90
2021/11/14 13:26:30;;;;;;;36.47;17.77;;;12.80;60.90;;;;;;5007923;28;20906;-89
2021/11/14 13:28:59;;;;;;;32.20;18.03;;;12.30;61.80;;;;;;5006747;28;20481;-90
2021/11/14 13:31:27;;;;;;;30.77;16.93;;;12.40;61.60;;;;;;5008274;28;20458;-90
2021/11/14 13:34:00;;;;;;;31.70;17.87;;;12.10;62.90;;;;;;5008760;28;20443;-90
2021/11/14 13:36:27;;;;;;;31.77;17.37;;;12.60;62.00;;;;;;5005780;28;20486;-90
2021/11/14 13:38:54;;;;;;;32.40;17.70;;;13.00;60.20;;;;;;5002187;28;20466;-90
2021/11/14 13:41:31;;;;;;;27.60;16.97;;;12.80;61.00;;;;;;5000360;28;20467;-90
2021/11/14 13:44:01;;;;;;;28.77;17.27;;;13.10;60.70;;;;;;5000548;28;20435;-91
2021/11/14 13:46:31;;;;;;;32.50;18.23;;;12.70;59.80;;;;;;4999528;28;20870;-89
2021/11/14 13:49:00;;;;;;;26.73;16.93;;;12.70;60.50;;;;;;4997637;28;20483;-90
2021/11/14 13:51:29;;;;;;;34.67;17.30;;;12.50;61.90;;;;;;5000669;28;20926;-90
2021/11/14 13:53:56;;;;;;;30.53;18.20;;;12.70;61.60;;;;;;5000765;28;20458;-90
2021/11/14 13:56:24;;;;;;;29.70;18.23;;;12.50;61.40;;;;;;5000962;28;20503;-90
2021/11/14 13:58:52;;;;;;;39.03;20.00;;;12.10;62.30;;;;;;4998710;28;20550;-90
2021/11/14 14:01:22;;;;;;;36.70;19.37;;;12.40;62.40;;;;;;4999913;28;20441;-90
2021/11/14 14:03:50;;;;;;;40.50;22.87;;;12.10;63.10;;;;;;5004015;28;20462;-92
2021/11/14 14:06:19;;;;;;;37.20;19.80;;;12.30;63.30;;;;;;5003687;28;20458;-91
2021/11/14 14:08:47;;;;;;;40.70;20.10;;;12.50;62.50;;;;;;5003115;28;20468;-90
2021/11/14 14:11:15;;;;;;;37.87;21.53;;;12.20;63.30;;;;;;5002980;28;20455;-90
2021/11/14 14:13:54;;;;;;;45.87;23.70;;;12.00;63.70;;;;;;5003670;28;20451;-89
2021/11/14 14:16:24;;;;;;;37.60;20.63;;;12.10;64.30;;;;;;5002454;28;20525;-90
2021/11/14 14:18:51;;;;;;;36.77;19.40;;;12.00;64.50;;;;;;5001380;28;20482;-89
2021/11/14 14:21:23;;;;;;;43.23;22.13;;;12.20;63.50;;;;;;5002999;28;20455;-90
2021/11/14 14:23:57;;;;;;;36.53;20.80;;;12.20;63.50;;;;;;5003329;28;20439;-90
2021/11/14 14:26:26;;;;;;;42.37;20.70;;;12.30;63.30;;;;;;5003445;28;20431;-91
2021/11/14 14:28:59;;;;;;;36.63;21.77;;;12.40;62.80;;;;;;5002888;28;20475;-90
2021/11/14 14:31:31;;;;;;;42.23;22.80;;;12.30;62.80;;;;;;5006530;28;20458;-90
2021/11/14 14:34:08;;;;;;;45.23;23.23;;;12.20;63.40;;;;;;5002379;28;20435;-90
2021/11/14 14:36:36;;;;;;;39.77;22.73;;;12.40;62.50;;;;;;5011192;28;20477;-90
2021/11/14 14:39:07;;;;;;;43.60;21.90;;;12.40;61.40;;;;;;5008774;28;20471;-91
2021/11/14 14:41:35;;;;;;;47.60;22.77;;;12.40;62.00;;;;;;5007209;28;20443;-90
2021/11/14 14:44:04;;;;;;;46.90;25.53;;;12.30;62.50;;;;;;5012905;28;20462;-90
2021/11/14 14:46:35;;;;;;;46.23;23.77;;;12.30;63.40;;;;;;5002531;28;20521;-89
2021/11/14 14:49:08;;;;;;;37.40;21.23;;;12.50;62.40;;;;;;5000153;28;20509;-89
2021/11/14 14:51:45;;;;;;;38.57;21.40;;;12.40;62.10;;;;;;4999866;28;20546;-91
2021/11/14 14:54:16;;;;;;;38.83;21.70;;;12.40;62.30;;;;;;5001762;28;20513;-91
2021/11/14 14:56:46;;;;;;;38.20;21.30;;;12.30;62.30;;;;;;5001787;28;20482;-90
2021/11/14 14:59:15;;;;;;;37.30;22.10;;;12.10;63.60;;;;;;5003295;28;20479;-91
2021/11/14 15:01:52;;;;;;;40.60;22.90;;;12.50;62.90;;;;;;5006322;28;20469;-90
2021/11/14 15:04:25;;;;;;;46.67;26.10;;;12.80;61.40;;;;;;4998850;28;20447;-90
2021/11/14 15:06:54;;;;;;;41.57;23.07;;;13.00;60.40;;;;;;4981650;28;20436;-90
2021/11/14 15:09:23;;;;;;;35.77;20.87;;;13.00;60.00;;;;;;4984485;28;20455;-90
2021/11/14 15:11:53;;;;;;;45.93;21.30;;;13.10;59.90;;;;;;5000268;28;20458;-90
2021/11/14 15:14:20;;;;;;;42.73;22.60;;;12.90;60.00;;;;;;4999034;28;20451;-90
2021/11/14 15:16:49;;;;;;;42.77;22.87;;;12.70;61.00;;;;;;5004436;28;20507;-90
2021/11/14 15:19:20;;;;;;;37.30;19.80;;;12.90;60.80;;;;;;5001079;28;20480;-90
2021/11/14 15:21:48;;;;;;;40.10;22.20;;;13.00;59.90;;;;;;4985391;28;20508;-91
2021/11/14 15:24:15;;;;;;;38.10;20.73;;;12.70;61.20;;;;;;5002854;28;20500;-90
2021/11/14 15:26:42;;;;;;;40.57;22.00;;;12.40;61.90;;;;;;5000170;28;20452;-90
2021/11/14 15:29:10;;;;;;;35.87;19.87;;;11.90;64.20;;;;;;4981491;28;20511;-89
2021/11/14 15:31:37;;;;;;;37.30;21.60;;;11.90;64.40;;;;;;4981947;28;20455;-89
2021/11/14 15:34:05;;;;;;;44.53;23.90;;;12.00;64.90;;;;;;4982198;28;20440;-90
2021/11/14 15:36:32;;;;;;;43.33;24.60;;;12.30;64.00;;;;;;4983813;28;20506;-90
2021/11/14 15:38:59;;;;;;;42.53;21.80;;;12.40;63.40;;;;;;4998886;28;20466;-90
2021/11/14 15:41:26;;;;;;;35.93;21.23;;;12.50;62.10;;;;;;4982741;28;20444;-89
2021/11/14 15:43:54;;;;;;;34.77;19.70;;;12.30;63.00;;;;;;4984442;28;20436;-90
2021/11/14 15:46:21;;;;;;;35.20;20.00;;;12.50;62.50;;;;;;5006153;28;20439;-90
2021/11/14 15:48:49;;;;;;;41.53;20.67;;;12.30;63.20;;;;;;4989586;28;20491;-90
2021/11/14 15:51:18;;;;;;;30.67;17.97;;;12.70;61.80;;;;;;5003069;28;20525;-89
2021/11/14 15:53:45;;;;;;;34.70;18.03;;;13.20;60.70;;;;;;5003582;28;20481;-89
2021/11/14 15:56:12;;;;;;;25.60;15.63;;;13.30;59.60;;;;;;4982805;28;20484;-90
2021/11/14 15:58:39;;;;;;;36.97;19.10;;;13.50;59.40;;;;;;4981329;28;20456;-89
2021/11/14 16:01:06;;;;;;;28.47;17.90;;;13.30;59.80;;;;;;5000814;28;20460;-90
2021/11/14 16:03:33;;;;;;;35.50;20.10;;;12.90;60.50;;;;;;4984376;28;20439;-90
2021/11/14 16:06:00;;;;;;;32.10;18.93;;;13.30;60.20;;;;;;4990686;28;20443;-89
2021/11/14 16:08:29;;;;;;;34.10;19.17;;;13.50;59.20;;;;;;4993498;28;20474;-90
2021/11/14 16:10:56;;;;;;;31.60;19.70;;;13.60;58.40;;;;;;4980017;28;20509;-89
2021/11/14 16:13:23;;;;;;;32.20;18.50;;;13.00;60.10;;;;;;4979174;28;20472;-90
2021/11/14 16:15:50;;;;;;;38.23;19.77;;;13.10;60.30;;;;;;4997409;28;20576;-90
2021/11/14 16:18:19;;;;;;;32.40;18.23;;;13.10;59.90;;;;;;5007387;28;20450;-89
2021/11/14 16:20:46;;;;;;;29.83;17.10;;;12.80;61.40;;;;;;5013803;28;20507;-89
2021/11/14 16:23:13;;;;;;;25.70;16.40;;;12.90;60.90;;;;;;4996837;28;20428;-92
2021/11/14 16:25:43;;;;;;;29.37;17.10;;;13.20;60.10;;;;;;4986676;28;20447;-90
2021/11/14 16:28:10;;;;;;;26.10;17.23;;;13.50;59.60;;;;;;4983920;28;20472;-91
2021/11/14 16:30:37;;;;;;;32.70;18.63;;;13.50;59.60;;;;;;4982538;28;21020;-90
2021/11/14 16:33:08;;;;;;;35.93;20.67;;;13.60;58.70;;;;;;5002512;28;20463;-91
2021/11/14 16:35:38;;;;;;;39.10;18.50;;;13.40;58.80;;;;;;5006112;28;20834;-91
2021/11/14 16:38:06;;;;;;;31.10;16.03;;;13.50;59.30;;;;;;5001303;28;20449;-91
2021/11/14 16:40:34;;;;;;;27.90;17.00;;;13.40;59.50;;;;;;5000378;28;20464;-90
2021/11/14 16:43:03;;;;;;;25.87;15.13;;;13.10;60.40;;;;;;4984979;28;20880;-91
2021/11/14 16:45:30;;;;;;;25.70;15.13;;;12.70;61.40;;;;;;4997817;28;20452;-90
2021/11/14 16:47:57;;;;;;;23.20;14.57;;;12.60;62.80;;;;;;5002842;28;20944;-90
2021/11/14 16:50:26;;;;;;;28.63;15.77;;;12.70;61.80;;;;;;5004877;28;20461;-90
2021/11/14 16:52:58;;;;;;;25.03;16.53;;;12.50;63.00;;;;;;5002943;28;20431;-89
2021/11/14 16:55:25;;;;;;;26.00;15.43;;;11.80;64.80;;;;;;5002558;28;20463;-90
2021/11/14 16:57:54;;;;;;;27.90;16.20;;;11.90;64.90;;;;;;4990358;28;20492;-89
2021/11/14 17:00:26;;;;;;;25.37;15.27;;;11.60;65.40;;;;;;4984362;28;20954;-91
2021/11/14 17:02:53;;;;;;;23.90;14.63;;;11.80;65.50;;;;;;4983709;28;20511;-92
2021/11/14 17:05:20;;;;;;;24.10;13.70;;;11.90;64.90;;;;;;4980807;28;20488;-89
2021/11/14 17:07:48;;;;;;;203.07;105.57;;;11.70;64.70;;;;;;4984559;28;20539;-89
2021/11/14 17:10:15;;;;;;;25.53;15.43;;;11.40;66.50;;;;;;4982525;28;20829;-90
2021/11/14 17:12:44;;;;;;;24.80;15.20;;;11.70;65.70;;;;;;4986548;28;20514;-90
2021/11/14 17:15:13;;;;;;;24.77;13.90;;;12.00;65.00;;;;;;4985327;28;20440;-89
2021/11/14 17:17:41;;;;;;;22.90;13.70;;;11.80;64.80;;;;;;4992589;28;20484;-90
2021/11/14 17:20:09;;;;;;;22.57;13.83;;;11.50;66.10;;;;;;4992874;28;20546;-90
2021/11/14 17:22:36;;;;;;;30.47;15.13;;;11.30;66.20;;;;;;4991828;28;20570;-91
2021/11/14 17:25:04;;;;;;;26.50;14.37;;;11.40;66.60;;;;;;4988632;28;20452;-89
2021/11/14 17:27:31;;;;;;;24.00;14.30;;;11.30;65.70;;;;;;4984684;28;20488;-89
2021/11/14 17:29:58;;;;;;;19.50;12.60;;;11.10;67.10;;;;;;4983137;28;20510;-88
2021/11/14 17:32:25;;;;;;;24.50;13.90;;;11.20;65.70;;;;;;4989346;28;20483;-88
2021/11/14 17:34:53;;;;;;;25.17;14.40;;;11.20;65.70;;;;;;4999897;28;20467;-89
2021/11/14 17:37:21;;;;;;;20.23;13.53;;;11.00;66.90;;;;;;5006417;28;20514;-88
2021/11/14 17:42:25;;;;;;;22.10;14.00;;;11.20;66.80;;;;;;5627520;23;20479;-89
2021/11/14 17:54:05;;;;;;;;;;;;;;;;;;;;;
2021/11/14 17:57:06;;;;;;;22.60;13.47;;;10.90;68.40;;;;;;5004630;28;20542;-87
2021/11/14 17:59:34;;;;;;;24.03;14.63;;;10.80;68.10;;;;;;4856536;28;20472;-87
2021/11/14 18:02:07;;;;;;;23.47;14.30;;;10.70;69.10;;;;;;4981437;28;20914;-87
2021/11/14 18:04:35;;;;;;;31.60;14.63;;;11.30;66.60;;;;;;4971017;28;20519;-86
2021/11/14 18:07:27;;;;;;;25.83;14.13;;;11.40;66.00;;;;;;4967219;28;20537;-86
2021/11/14 18:09:58;;;;;;;20.53;13.40;;;11.20;66.10;;;;;;4973763;28;20492;-86
2021/11/14 18:12:27;;;;;;;19.13;12.83;;;11.20;66.40;;;;;;4982800;28;20523;-87
2021/11/14 18:14:56;;;;;;;22.30;13.50;;;11.20;66.50;;;;;;4981063;28;20456;-87
2021/11/14 18:17:25;;;;;;;21.97;13.27;;;11.50;65.60;;;;;;4967655;28;20919;-86
2021/11/14 18:19:53;;;;;;;21.37;13.93;;;11.80;64.80;;;;;;4961819;28;20472;-87
2021/11/14 18:22:24;;;;;;;19.53;12.53;;;11.80;64.80;;;;;;4974721;28;20486;-87
2021/11/14 18:24:53;;;;;;;24.03;14.33;;;11.70;64.70;;;;;;4982965;28;20452;-86
2021/11/14 18:27:20;;;;;;;22.20;13.23;;;11.80;64.50;;;;;;4981518;28;20468;-86
2021/11/14 18:29:47;;;;;;;19.33;12.77;;;12.00;64.20;;;;;;4981460;28;20456;-88
2021/11/14 18:32:14;;;;;;;22.87;13.53;;;12.10;62.90;;;;;;4980166;28;20456;-86
2021/11/14 18:34:43;;;;;;;25.80;14.97;;;11.80;64.50;;;;;;4967650;28;20507;-86
2021/11/14 18:37:11;;;;;;;22.40;14.13;;;12.30;63.00;;;;;;4963792;29;20864;-86
2021/11/14 18:39:42;;;;;;;24.80;14.13;;;12.30;62.80;;;;;;4961645;29;21010;-88
2021/11/14 18:42:37;;;;;;;23.03;12.63;;;11.90;63.70;;;;;;4962707;29;20456;-86
2021/11/14 18:45:06;;;;;;;22.13;12.80;;;11.50;64.60;;;;;;4973212;28;20495;-86
2021/11/14 18:47:37;;;;;;;16.87;12.40;;;11.40;65.20;;;;;;4980277;28;20562;-86
2021/11/14 18:50:07;;;;;;;20.23;12.20;;;11.20;64.60;;;;;;4981238;28;20479;-85
2021/11/14 18:52:34;;;;;;;19.50;11.90;;;11.40;65.10;;;;;;4984330;28;20564;-85
2021/11/14 18:55:03;;;;;;;16.87;11.70;;;11.70;65.40;;;;;;4963007;28;20473;-86
2021/11/14 18:57:30;;;;;;;20.63;12.77;;;11.90;64.50;;;;;;4961435;29;20576;-86
2021/11/14 18:59:57;;;;;;;16.00;10.93;;;12.10;63.00;;;;;;4962255;28;20508;-86
2021/11/14 19:02:24;;;;;;;19.73;11.00;;;12.00;62.80;;;;;;4968661;29;20459;-86
2021/11/14 19:04:53;;;;;;;15.60;11.00;;;11.60;64.60;;;;;;4964543;29;20492;-85
2021/11/14 19:07:20;;;;;;;16.47;11.80;;;11.40;64.40;;;;;;4981210;28;20876;-86
2021/11/14 19:09:47;;;;;;;19.53;12.27;;;11.40;64.40;;;;;;4979943;28;20498;-87
2021/11/14 19:12:15;;;;;;;17.00;11.40;;;11.50;65.00;;;;;;4981553;28;20463;-87
2021/11/14 19:14:42;;;;;;;17.80;11.17;;;11.60;64.60;;;;;;4982443;28;20428;-86
2021/11/14 19:17:10;;;;;;;26.47;11.47;;;11.30;64.50;;;;;;4987809;28;20480;-86
2021/11/14 19:19:37;;;;;;;20.00;13.03;;;11.40;64.90;;;;;;4987406;28;20538;-86
2021/11/14 19:22:06;;;;;;;21.03;13.20;;;11.40;65.30;;;;;;4985669;28;20436;-86
2021/11/14 19:24:33;;;;;;;24.70;11.07;;;11.60;64.60;;;;;;4985833;28;20514;-86
2021/11/14 19:27:15;;;;;;;19.83;12.60;;;11.80;63.30;;;;;;4986947;28;20523;-86
2021/11/14 19:29:43;;;;;;;17.47;11.50;;;11.30;64.30;;;;;;4987187;28;20451;-86
2021/11/14 19:32:12;;;;;;;18.40;10.87;;;11.30;65.40;;;;;;4988058;28;20971;-86
2021/11/14 19:34:42;;;;;;;18.40;11.83;;;11.00;66.60;;;;;;4986937;28;20459;-87
2021/11/14 19:37:09;;;;;;;16.50;9.60;;;11.30;66.10;;;;;;4988424;28;20539;-87
2021/11/14 19:39:37;;;;;;;15.47;11.40;;;11.40;64.90;;;;;;4988681;28;20531;-87
2021/11/14 19:42:05;;;;;;;19.10;12.30;;;11.50;64.50;;;;;;4989256;28;20455;-86
2021/11/14 19:44:33;;;;;;;20.27;11.17;;;11.50;65.00;;;;;;4987032;28;20451;-87
2021/11/14 19:47:01;;;;;;;17.63;11.27;;;11.30;65.00;;;;;;4971132;28;20447;-87
2021/11/14 19:49:28;;;;;;;24.23;11.30;;;11.40;64.50;;;;;;4965300;28;20501;-87
2021/11/14 19:51:55;;;;;;;16.40;11.53;;;11.60;64.60;;;;;;4967746;28;20525;-87
2021/11/14 19:54:22;;;;;;;15.13;10.10;;;11.30;65.30;;;;;;4968777;29;20464;-87
2021/11/14 19:56:50;;;;;;;14.27;10.27;;;11.40;64.70;;;;;;4969559;28;20468;-87
2021/11/14 19:59:21;;;;;;;22.00;15.23;;;11.50;64.50;;;;;;4968538;28;20846;-86
2021/11/14 20:01:51;;;;;;;19.27;12.30;;;11.30;65.40;;;;;;4966941;28;20452;-87
2021/11/14 20:04:26;;;;;;;20.80;12.70;;;11.40;65.30;;;;;;4972275;28;20563;-87
2021/11/14 20:07:01;;;;;;;22.53;13.70;;;11.40;64.50;;;;;;4969577;28;20448;-87
2021/11/14 20:09:28;;;;;;;23.43;14.70;;;11.10;65.90;;;;;;4969076;28;20476;-88
2021/11/14 20:11:55;;;;;;;25.03;12.03;;;11.30;65.70;;;;;;4969840;28;20491;-87
2021/11/14 20:14:23;;;;;;;20.60;13.50;;;11.10;66.00;;;;;;4967988;29;20452;-87
2021/11/14 20:16:51;;;;;;;22.17;12.27;;;11.00;66.20;;;;;;4969805;28;20531;-87
2021/11/14 20:19:21;;;;;;;17.97;12.23;;;11.30;65.50;;;;;;4968631;29;20472;-88
2021/11/14 20:21:48;;;;;;;19.77;12.70;;;11.20;65.40;;;;;;4968517;29;20458;-86
2021/11/14 20:24:19;;;;;;;22.37;13.37;;;11.40;64.90;;;;;;4968343;28;20994;-87
2021/11/14 20:29:33;;;;;;;25.90;12.93;;;11.30;65.50;;;;;;4967567;28;20496;-87
2021/11/14 20:32:02;;;;;;;28.73;14.07;;;10.90;65.80;;;;;;4968243;29;20441;-87
2021/11/14 20:34:31;;;;;;;20.77;13.10;;;10.90;66.70;;;;;;4969108;29;20455;-87
2021/11/14 20:37:06;;;;;;;21.67;13.50;;;11.20;66.10;;;;;;4965485;29;20457;-87
2021/11/14 20:39:34;;;;;;;27.43;15.20;;;11.10;65.70;;;;;;4968953;29;21069;-87
2021/11/14 20:42:01;;;;;;;24.43;13.90;;;11.00;65.70;;;;;;4969620;28;20456;-87
2021/11/14 20:44:40;;;;;;;20.13;13.53;;;10.90;66.20;;;;;;4989693;28;20440;-87
2021/11/14 20:47:12;;;;;;;26.43;14.90;;;11.00;66.40;;;;;;4989413;28;20467;-87
2021/11/14 20:49:40;;;;;;;24.63;15.90;;;10.80;66.50;;;;;;4988145;28;20506;-87
2021/11/14 20:52:09;;;;;;;25.80;15.40;;;11.00;66.40;;;;;;4988328;28;20464;-87
2021/11/14 20:54:37;;;;;;;25.37;14.00;;;10.90;66.10;;;;;;4988259;28;20463;-87
2021/11/14 20:57:43;;;;;;;26.70;16.10;;;11.00;65.90;;;;;;4990567;28;20448;-87
2021/11/14 21:00:26;;;;;;;21.10;13.20;;;10.50;66.90;;;;;;4988993;28;20498;-86
2021/11/14 21:02:55;;;;;;;24.53;14.90;;;10.60;67.60;;;;;;4987015;28;20421;-88
2021/11/14 21:05:30;;;;;;;22.73;14.60;;;10.70;67.30;;;;;;4977598;28;20532;-87
2021/11/14 21:07:58;;;;;;;26.77;15.90;;;10.70;66.80;;;;;;4974759;29;20456;-86
2021/11/14 21:10:33;;;;;;;29.93;15.93;;;10.60;66.90;;;;;;4976228;28;20524;-88
2021/11/14 21:13:00;;;;;;;33.27;15.87;;;10.20;68.00;;;;;;4974968;29;20515;-87
2021/11/14 21:15:27;;;;;;;31.60;16.57;;;10.10;69.00;;;;;;4988632;28;20487;-87
2021/11/14 21:17:56;;;;;;;27.70;16.27;;;10.30;68.20;;;;;;4990312;28;20506;-86
2021/11/14 21:20:28;;;;;;;28.23;15.30;;;10.30;68.20;;;;;;4988810;28;20456;-87
2021/11/14 21:23:00;;;;;;;31.33;16.43;;;10.40;67.80;;;;;;4987038;28;20444;-86
2021/11/14 21:25:35;;;;;;;26.00;15.20;;;10.60;67.20;;;;;;4987832;28;20782;-87
2021/11/14 21:28:05;;;;;;;25.30;14.97;;;10.70;66.50;;;;;;4990072;28;20423;-87
2021/11/14 21:30:32;;;;;;;26.27;16.17;;;10.50;65.50;;;;;;4972330;28;20509;-87
2021/11/14 21:33:26;;;;;;;27.93;15.70;;;10.70;65.50;;;;;;4966314;29;20452;-86
2021/11/14 21:38:38;;;;;;;30.90;16.97;;;10.50;66.90;;;;;;4890901;29;21016;-88
2021/11/14 21:41:07;;;;;;;31.57;16.60;;;10.30;67.60;;;;;;4892231;29;20452;-88
2021/11/14 21:43:42;;;;;;;26.37;15.40;;;10.30;67.70;;;;;;4893033;29;20597;-86
2021/11/14 21:46:09;;;;;;;29.97;15.80;;;10.30;68.30;;;;;;4889507;29;20533;-87
2021/11/14 21:48:46;;;;;;;28.93;15.83;;;10.30;67.80;;;;;;4889935;29;20459;-88
2021/11/14 21:51:14;;;;;;;34.70;17.33;;;10.40;67.20;;;;;;4890879;29;20455;-87
2021/11/14 21:53:43;;;;;;;31.70;16.90;;;10.20;67.50;;;;;;4929566;29;20448;-88
2021/11/14 21:56:11;;;;;;;29.30;16.63;;;10.10;68.50;;;;;;4967139;28;20451;-88
2021/11/14 21:59:01;;;;;;;32.97;17.73;;;10.30;67.40;;;;;;4968773;29;20516;-87
2021/11/14 22:01:28;;;;;;;32.97;18.20;;;10.30;67.40;;;;;;4965755;28;20479;-87
2021/11/14 22:04:00;;;;;;;36.93;17.63;;;10.40;67.00;;;;;;4972344;28;20475;-86
2021/11/14 22:06:34;;;;;;;38.90;18.50;;;10.20;67.20;;;;;;4976599;29;20449;-87
2021/11/14 22:16:44;;;;;;;36.67;18.37;;;10.10;68.00;;;;;;4994581;28;20482;-86